sensor_id;sensor_type;location;lat;lon;timestamp;P1;durP1;ratioP1;P2;durP2;ratioP2
77432;SDS011;66752;48.576;8.876;2023-03-16T00:00:02;11.95;;;5.55;;
77432;SDS011;66752;48.576;8.876;2023-03-16T00:02:28;10.60;;;5.60;;
77432;SDS011;66752;48.576;8.876;2023-03-16T00:04:54;11.02;;;5.65;;
77432;SDS011;66752;48.576;8.876;2023-03-16T00:07:20;8.85;;;5.03;;
77432;SDS011;66752;48.576;8.876;2023-03-16T00:09:46;9.90;;;5.60;;
77432;SDS011;66752;48.576;8.876;2023-03-16T00:12:13;7.80;;;4.45;;
77432;SDS011;66752;48.576;8.876;2023-03-16T00:14:46;9.68;;;5.03;;
77432;SDS011;66752;48.576;8.876;2023-03-16T00:17:13;8.05;;;4.05;;
77432;SDS011;66752;48.576;8.876;2023-03-16T00:19:44;8.68;;;4.57;;
77432;SDS011;66752;48.576;8.876;2023-03-16T00:22:10;9.60;;;4.47;;
77432;SDS011;66752;48.576;8.876;2023-03-16T00:24:38;9.70;;;4.72;;
77432;SDS011;66752;48.576;8.876;2023-03-16T00:27:07;6.22;;;3.95;;
77432;SDS011;66752;48.576;8.876;2023-03-16T00:29:33;7.60;;;3.85;;
77432;SDS011;66752;48.576;8.876;2023-03-16T00:31:59;8.82;;;4.55;;
77432;SDS011;66752;48.576;8.876;2023-03-16T00:34:25;9.80;;;4.65;;
77432;SDS011;66752;48.576;8.876;2023-03-16T00:36:53;8.35;;;4.53;;
77432;SDS011;66752;48.576;8.876;2023-03-16T00:39:19;6.80;;;3.92;;
77432;SDS011;66752;48.576;8.876;2023-03-16T00:41:46;10.70;;;4.55;;
77432;SDS011;66752;48.576;8.876;2023-03-16T00:44:12;7.47;;;4.55;;
77432;SDS011;66752;48.576;8.876;2023-03-16T00:46:38;9.75;;;5.30;;
77432;SDS011;66752;48.576;8.876;2023-03-16T00:49:04;7.40;;;4.65;;
77432;SDS011;66752;48.576;8.876;2023-03-16T00:51:30;8.23;;;5.07;;
77432;SDS011;66752;48.576;8.876;2023-03-16T00:53:57;10.50;;;5.15;;
77432;SDS011;66752;48.576;8.876;2023-03-16T00:56:23;8.45;;;4.80;;
77432;SDS011;66752;48.576;8.876;2023-03-16T00:58:49;7.88;;;4.20;;
77432;SDS011;66752;48.576;8.876;2023-03-16T01:01:22;8.25;;;4.85;;
77432;SDS011;66752;48.576;8.876;2023-03-16T01:03:48;8.43;;;4.07;;
77432;SDS011;66752;48.576;8.876;2023-03-16T01:06:15;7.47;;;3.80;;
77432;SDS011;66752;48.576;8.876;2023-03-16T01:08:44;7.30;;;3.95;;
77432;SDS011;66752;48.576;8.876;2023-03-16T01:11:14;7.95;;;3.72;;
77432;SDS011;66752;48.576;8.876;2023-03-16T01:13:40;7.40;;;3.40;;
77432;SDS011;66752;48.576;8.876;2023-03-16T01:16:06;8.30;;;3.63;;
77432;SDS011;66752;48.576;8.876;2023-03-16T01:18:32;8.25;;;4.68;;
77432;SDS011;66752;48.576;8.876;2023-03-16T01:21:02;7.93;;;4.45;;
77432;SDS011;66752;48.576;8.876;2023-03-16T01:23:29;8.23;;;4.60;;
77432;SDS011;66752;48.576;8.876;2023-03-16T01:25:55;7.53;;;4.20;;
77432;SDS011;66752;48.576;8.876;2023-03-16T01:28:22;7.15;;;4.03;;
77432;SDS011;66752;48.576;8.876;2023-03-16T01:33:17;10.30;;;5.07;;
77432;SDS011;66752;48.576;8.876;2023-03-16T01:35:50;8.15;;;4.75;;
77432;SDS011;66752;48.576;8.876;2023-03-16T01:38:16;10.30;;;5.28;;
77432;SDS011;66752;48.576;8.876;2023-03-16T01:40:42;8.63;;;4.80;;
77432;SDS011;66752;48.576;8.876;2023-03-16T01:43:09;10.55;;;6.07;;
77432;SDS011;66752;48.576;8.876;2023-03-16T01:48:20;10.27;;;5.78;;
77432;SDS011;66752;48.576;8.876;2023-03-16T01:50:49;9.88;;;5.65;;
77432;SDS011;66752;48.576;8.876;2023-03-16T01:53:16;8.40;;;4.53;;
77432;SDS011;66752;48.576;8.876;2023-03-16T01:55:42;10.68;;;6.43;;
77432;SDS011;66752;48.576;8.876;2023-03-16T01:58:09;19.30;;;14.20;;
77432;SDS011;66752;48.576;8.876;2023-03-16T02:00:35;13.13;;;7.47;;
77432;SDS011;66752;48.576;8.876;2023-03-16T02:03:06;9.02;;;4.95;;
77432;SDS011;66752;48.576;8.876;2023-03-16T02:05:36;9.75;;;4.65;;
77432;SDS011;66752;48.576;8.876;2023-03-16T02:08:03;7.88;;;4.50;;
77432;SDS011;66752;48.576;8.876;2023-03-16T02:10:30;9.18;;;4.95;;
77432;SDS011;66752;48.576;8.876;2023-03-16T02:15:23;8.50;;;4.57;;
77432;SDS011;66752;48.576;8.876;2023-03-16T02:17:49;10.38;;;5.00;;
77432;SDS011;66752;48.576;8.876;2023-03-16T02:22:47;7.82;;;4.90;;
77432;SDS011;66752;48.576;8.876;2023-03-16T02:25:14;9.65;;;5.13;;
77432;SDS011;66752;48.576;8.876;2023-03-16T02:30:26;11.20;;;5.28;;
77432;SDS011;66752;48.576;8.876;2023-03-16T02:32:52;10.93;;;5.93;;
77432;SDS011;66752;48.576;8.876;2023-03-16T02:35:19;8.80;;;5.40;;
77432;SDS011;66752;48.576;8.876;2023-03-16T02:37:45;11.15;;;5.38;;
77432;SDS011;66752;48.576;8.876;2023-03-16T02:40:15;10.25;;;5.38;;
77432;SDS011;66752;48.576;8.876;2023-03-16T02:42:42;8.60;;;5.20;;
77432;SDS011;66752;48.576;8.876;2023-03-16T02:45:08;13.25;;;5.85;;
77432;SDS011;66752;48.576;8.876;2023-03-16T02:47:36;10.73;;;6.03;;
77432;SDS011;66752;48.576;8.876;2023-03-16T02:50:03;14.40;;;6.85;;
77432;SDS011;66752;48.576;8.876;2023-03-16T02:52:31;11.68;;;6.78;;
77432;SDS011;66752;48.576;8.876;2023-03-16T02:54:58;15.68;;;8.10;;
77432;SDS011;66752;48.576;8.876;2023-03-16T02:57:24;20.90;;;8.65;;
77432;SDS011;66752;48.576;8.876;2023-03-16T02:59:50;14.82;;;8.20;;
77432;SDS011;66752;48.576;8.876;2023-03-16T03:02:16;20.20;;;8.80;;
77432;SDS011;66752;48.576;8.876;2023-03-16T03:04:42;17.08;;;8.77;;
77432;SDS011;66752;48.576;8.876;2023-03-16T03:07:12;16.40;;;9.18;;
77432;SDS011;66752;48.576;8.876;2023-03-16T03:09:38;19.90;;;8.93;;
77432;SDS011;66752;48.576;8.876;2023-03-16T03:12:06;20.85;;;10.40;;
77432;SDS011;66752;48.576;8.876;2023-03-16T03:14:32;23.23;;;9.55;;
77432;SDS011;66752;48.576;8.876;2023-03-16T03:17:02;18.65;;;10.75;;
77432;SDS011;66752;48.576;8.876;2023-03-16T03:19:28;16.85;;;9.52;;
77432;SDS011;66752;48.576;8.876;2023-03-16T03:21:54;24.50;;;10.30;;
77432;SDS011;66752;48.576;8.876;2023-03-16T03:24:20;21.05;;;9.25;;
77432;SDS011;66752;48.576;8.876;2023-03-16T03:26:47;18.73;;;9.52;;
77432;SDS011;66752;48.576;8.876;2023-03-16T03:29:13;27.20;;;9.63;;
77432;SDS011;66752;48.576;8.876;2023-03-16T03:31:38;21.13;;;10.07;;
77432;SDS011;66752;48.576;8.876;2023-03-16T03:34:04;25.77;;;9.48;;
77432;SDS011;66752;48.576;8.876;2023-03-16T03:36:31;25.80;;;10.55;;
77432;SDS011;66752;48.576;8.876;2023-03-16T03:38:57;22.85;;;10.07;;
77432;SDS011;66752;48.576;8.876;2023-03-16T03:41:23;28.42;;;10.30;;
77432;SDS011;66752;48.576;8.876;2023-03-16T03:43:50;21.45;;;9.40;;
77432;SDS011;66752;48.576;8.876;2023-03-16T03:46:15;21.65;;;9.32;;
77432;SDS011;66752;48.576;8.876;2023-03-16T03:48:41;21.45;;;9.73;;
77432;SDS011;66752;48.576;8.876;2023-03-16T03:51:07;21.88;;;9.68;;
77432;SDS011;66752;48.576;8.876;2023-03-16T03:53:33;25.70;;;9.80;;
77432;SDS011;66752;48.576;8.876;2023-03-16T03:55:59;26.70;;;9.15;;
77432;SDS011;66752;48.576;8.876;2023-03-16T03:58:25;19.48;;;9.98;;
77432;SDS011;66752;48.576;8.876;2023-03-16T04:00:51;29.38;;;10.10;;
77432;SDS011;66752;48.576;8.876;2023-03-16T04:03:17;26.45;;;10.23;;
77432;SDS011;66752;48.576;8.876;2023-03-16T04:05:43;21.58;;;9.82;;
77432;SDS011;66752;48.576;8.876;2023-03-16T04:08:09;18.13;;;9.50;;
77432;SDS011;66752;48.576;8.876;2023-03-16T04:10:35;23.33;;;9.75;;
77432;SDS011;66752;48.576;8.876;2023-03-16T04:13:01;27.17;;;9.48;;
77432;SDS011;66752;48.576;8.876;2023-03-16T04:15:27;16.88;;;9.55;;
77432;SDS011;66752;48.576;8.876;2023-03-16T04:17:53;34.35;;;10.38;;
77432;SDS011;66752;48.576;8.876;2023-03-16T04:20:19;23.38;;;9.77;;
77432;SDS011;66752;48.576;8.876;2023-03-16T04:22:47;24.02;;;11.05;;
77432;SDS011;66752;48.576;8.876;2023-03-16T04:25:13;24.67;;;10.45;;
77432;SDS011;66752;48.576;8.876;2023-03-16T04:27:40;27.23;;;11.05;;
77432;SDS011;66752;48.576;8.876;2023-03-16T04:30:07;18.77;;;10.05;;
77432;SDS011;66752;48.576;8.876;2023-03-16T04:32:35;19.67;;;9.45;;
77432;SDS011;66752;48.576;8.876;2023-03-16T04:35:01;28.25;;;11.25;;
77432;SDS011;66752;48.576;8.876;2023-03-16T04:37:27;24.25;;;10.98;;
77432;SDS011;66752;48.576;8.876;2023-03-16T04:39:53;24.27;;;10.45;;
77432;SDS011;66752;48.576;8.876;2023-03-16T04:42:19;28.03;;;10.80;;
77432;SDS011;66752;48.576;8.876;2023-03-16T04:44:45;20.60;;;9.20;;
77432;SDS011;66752;48.576;8.876;2023-03-16T04:47:12;24.63;;;10.25;;
77432;SDS011;66752;48.576;8.876;2023-03-16T04:49:38;28.13;;;10.45;;
77432;SDS011;66752;48.576;8.876;2023-03-16T04:52:04;19.00;;;10.07;;
77432;SDS011;66752;48.576;8.876;2023-03-16T04:54:30;25.02;;;11.32;;
77432;SDS011;66752;48.576;8.876;2023-03-16T04:56:57;27.20;;;11.63;;
77432;SDS011;66752;48.576;8.876;2023-03-16T04:59:24;32.00;;;9.80;;
77432;SDS011;66752;48.576;8.876;2023-03-16T05:01:50;23.15;;;10.90;;
77432;SDS011;66752;48.576;8.876;2023-03-16T05:04:16;22.90;;;10.43;;
77432;SDS011;66752;48.576;8.876;2023-03-16T05:06:42;20.25;;;10.43;;
77432;SDS011;66752;48.576;8.876;2023-03-16T05:09:08;23.67;;;10.85;;
77432;SDS011;66752;48.576;8.876;2023-03-16T05:11:34;28.17;;;10.75;;
77432;SDS011;66752;48.576;8.876;2023-03-16T05:14:00;23.08;;;10.27;;
77432;SDS011;66752;48.576;8.876;2023-03-16T05:16:26;30.75;;;11.40;;
77432;SDS011;66752;48.576;8.876;2023-03-16T05:18:52;19.15;;;9.80;;
77432;SDS011;66752;48.576;8.876;2023-03-16T05:21:18;34.85;;;11.75;;
77432;SDS011;66752;48.576;8.876;2023-03-16T05:23:45;27.98;;;10.35;;
77432;SDS011;66752;48.576;8.876;2023-03-16T05:26:11;23.50;;;9.98;;
77432;SDS011;66752;48.576;8.876;2023-03-16T05:28:38;26.65;;;10.38;;
77432;SDS011;66752;48.576;8.876;2023-03-16T05:31:04;26.40;;;10.90;;
77432;SDS011;66752;48.576;8.876;2023-03-16T05:33:30;26.48;;;10.32;;
77432;SDS011;66752;48.576;8.876;2023-03-16T05:35:56;37.25;;;11.55;;
77432;SDS011;66752;48.576;8.876;2023-03-16T05:38:23;30.55;;;10.05;;
77432;SDS011;66752;48.576;8.876;2023-03-16T05:40:49;24.98;;;9.48;;
77432;SDS011;66752;48.576;8.876;2023-03-16T05:43:17;41.53;;;11.02;;
77432;SDS011;66752;48.576;8.876;2023-03-16T05:45:44;26.02;;;10.55;;
77432;SDS011;66752;48.576;8.876;2023-03-16T05:48:10;50.75;;;10.70;;
77432;SDS011;66752;48.576;8.876;2023-03-16T05:50:36;34.70;;;10.32;;
77432;SDS011;66752;48.576;8.876;2023-03-16T05:53:02;28.90;;;9.65;;
77432;SDS011;66752;48.576;8.876;2023-03-16T05:55:28;24.90;;;9.90;;
77432;SDS011;66752;48.576;8.876;2023-03-16T05:57:54;22.35;;;9.93;;
77432;SDS011;66752;48.576;8.876;2023-03-16T06:00:20;42.75;;;11.15;;
77432;SDS011;66752;48.576;8.876;2023-03-16T06:02:47;37.58;;;10.57;;
77432;SDS011;66752;48.576;8.876;2023-03-16T06:05:15;26.42;;;9.85;;
77432;SDS011;66752;48.576;8.876;2023-03-16T06:07:41;22.60;;;9.98;;
77432;SDS011;66752;48.576;8.876;2023-03-16T06:10:08;33.55;;;10.80;;
77432;SDS011;66752;48.576;8.876;2023-03-16T06:12:34;31.23;;;9.55;;
77432;SDS011;66752;48.576;8.876;2023-03-16T06:15:00;27.52;;;10.05;;
77432;SDS011;66752;48.576;8.876;2023-03-16T06:17:26;37.72;;;10.43;;
77432;SDS011;66752;48.576;8.876;2023-03-16T06:19:52;24.98;;;9.45;;
77432;SDS011;66752;48.576;8.876;2023-03-16T06:22:18;29.00;;;9.48;;
77432;SDS011;66752;48.576;8.876;2023-03-16T06:24:44;42.92;;;11.98;;
77432;SDS011;66752;48.576;8.876;2023-03-16T06:27:10;41.90;;;11.18;;
77432;SDS011;66752;48.576;8.876;2023-03-16T06:29:36;26.15;;;11.05;;
77432;SDS011;66752;48.576;8.876;2023-03-16T06:32:02;29.15;;;9.88;;
77432;SDS011;66752;48.576;8.876;2023-03-16T06:34:28;41.05;;;9.95;;
77432;SDS011;66752;48.576;8.876;2023-03-16T06:36:54;20.05;;;8.15;;
77432;SDS011;66752;48.576;8.876;2023-03-16T06:39:20;29.98;;;9.80;;
77432;SDS011;66752;48.576;8.876;2023-03-16T06:41:46;32.42;;;8.65;;
77432;SDS011;66752;48.576;8.876;2023-03-16T06:44:12;31.60;;;9.20;;
77432;SDS011;66752;48.576;8.876;2023-03-16T06:46:38;35.67;;;9.98;;
77432;SDS011;66752;48.576;8.876;2023-03-16T06:49:04;33.60;;;9.90;;
77432;SDS011;66752;48.576;8.876;2023-03-16T06:51:30;32.25;;;9.70;;
77432;SDS011;66752;48.576;8.876;2023-03-16T06:53:56;43.80;;;10.65;;
77432;SDS011;66752;48.576;8.876;2023-03-16T06:56:22;28.90;;;10.13;;
77432;SDS011;66752;48.576;8.876;2023-03-16T06:58:49;33.35;;;10.52;;
77432;SDS011;66752;48.576;8.876;2023-03-16T07:01:15;28.15;;;9.60;;
77432;SDS011;66752;48.576;8.876;2023-03-16T07:03:41;28.48;;;9.57;;
77432;SDS011;66752;48.576;8.876;2023-03-16T07:06:07;26.45;;;10.27;;
77432;SDS011;66752;48.576;8.876;2023-03-16T07:08:34;20.75;;;9.93;;
77432;SDS011;66752;48.576;8.876;2023-03-16T07:11:00;22.42;;;10.00;;
77432;SDS011;66752;48.576;8.876;2023-03-16T07:13:26;31.67;;;10.10;;
77432;SDS011;66752;48.576;8.876;2023-03-16T07:15:51;26.77;;;10.23;;
77432;SDS011;66752;48.576;8.876;2023-03-16T07:18:18;25.77;;;10.38;;
77432;SDS011;66752;48.576;8.876;2023-03-16T07:20:44;23.17;;;10.73;;
77432;SDS011;66752;48.576;8.876;2023-03-16T07:23:10;22.27;;;11.07;;
77432;SDS011;66752;48.576;8.876;2023-03-16T07:25:36;20.77;;;11.15;;
77432;SDS011;66752;48.576;8.876;2023-03-16T07:28:02;23.80;;;10.88;;
77432;SDS011;66752;48.576;8.876;2023-03-16T07:30:28;29.20;;;13.00;;
77432;SDS011;66752;48.576;8.876;2023-03-16T07:32:55;32.33;;;12.05;;
77432;SDS011;66752;48.576;8.876;2023-03-16T07:35:21;22.33;;;12.32;;
77432;SDS011;66752;48.576;8.876;2023-03-16T07:37:47;24.30;;;10.90;;
77432;SDS011;66752;48.576;8.876;2023-03-16T07:40:13;32.17;;;13.40;;
77432;SDS011;66752;48.576;8.876;2023-03-16T07:42:39;32.92;;;12.98;;
77432;SDS011;66752;48.576;8.876;2023-03-16T07:45:06;29.77;;;13.00;;
77432;SDS011;66752;48.576;8.876;2023-03-16T07:47:32;31.52;;;13.30;;
77432;SDS011;66752;48.576;8.876;2023-03-16T07:49:58;28.67;;;12.43;;
77432;SDS011;66752;48.576;8.876;2023-03-16T07:52:25;29.38;;;12.75;;
77432;SDS011;66752;48.576;8.876;2023-03-16T07:54:51;20.63;;;10.30;;
77432;SDS011;66752;48.576;8.876;2023-03-16T07:57:17;19.25;;;10.88;;
77432;SDS011;66752;48.576;8.876;2023-03-16T07:59:43;21.70;;;10.63;;
77432;SDS011;66752;48.576;8.876;2023-03-16T08:02:12;22.88;;;10.43;;
77432;SDS011;66752;48.576;8.876;2023-03-16T08:04:38;21.73;;;9.80;;
77432;SDS011;66752;48.576;8.876;2023-03-16T08:07:08;19.15;;;10.30;;
77432;SDS011;66752;48.576;8.876;2023-03-16T08:09:34;17.85;;;9.43;;
77432;SDS011;66752;48.576;8.876;2023-03-16T08:12:01;19.13;;;9.20;;
77432;SDS011;66752;48.576;8.876;2023-03-16T08:14:27;21.05;;;10.30;;
77432;SDS011;66752;48.576;8.876;2023-03-16T08:16:53;18.88;;;10.25;;
77432;SDS011;66752;48.576;8.876;2023-03-16T08:19:19;22.60;;;11.77;;
77432;SDS011;66752;48.576;8.876;2023-03-16T08:21:45;21.73;;;11.52;;
77432;SDS011;66752;48.576;8.876;2023-03-16T08:24:11;23.80;;;12.40;;
77432;SDS011;66752;48.576;8.876;2023-03-16T08:26:37;23.98;;;11.98;;
77432;SDS011;66752;48.576;8.876;2023-03-16T08:29:04;26.80;;;13.70;;
77432;SDS011;66752;48.576;8.876;2023-03-16T08:31:30;23.83;;;11.82;;
77432;SDS011;66752;48.576;8.876;2023-03-16T08:33:58;26.55;;;13.75;;
77432;SDS011;66752;48.576;8.876;2023-03-16T08:36:25;26.25;;;12.88;;
77432;SDS011;66752;48.576;8.876;2023-03-16T08:38:52;17.02;;;9.48;;
77432;SDS011;66752;48.576;8.876;2023-03-16T08:41:19;19.45;;;10.45;;
77432;SDS011;66752;48.576;8.876;2023-03-16T08:43:45;18.23;;;10.70;;
77432;SDS011;66752;48.576;8.876;2023-03-16T08:46:11;17.25;;;9.65;;
77432;SDS011;66752;48.576;8.876;2023-03-16T08:48:38;20.02;;;10.13;;
77432;SDS011;66752;48.576;8.876;2023-03-16T08:51:05;14.77;;;9.50;;
77432;SDS011;66752;48.576;8.876;2023-03-16T08:53:31;19.17;;;9.65;;
77432;SDS011;66752;48.576;8.876;2023-03-16T08:56:01;16.48;;;10.57;;
77432;SDS011;66752;48.576;8.876;2023-03-16T08:58:28;16.67;;;9.88;;
77432;SDS011;66752;48.576;8.876;2023-03-16T09:00:56;18.50;;;10.60;;
77432;SDS011;66752;48.576;8.876;2023-03-16T09:03:22;18.15;;;10.27;;
77432;SDS011;66752;48.576;8.876;2023-03-16T09:05:48;16.40;;;10.05;;
77432;SDS011;66752;48.576;8.876;2023-03-16T09:08:15;18.13;;;9.07;;
77432;SDS011;66752;48.576;8.876;2023-03-16T09:10:42;16.55;;;10.48;;
77432;SDS011;66752;48.576;8.876;2023-03-16T09:13:08;14.88;;;9.27;;
77432;SDS011;66752;48.576;8.876;2023-03-16T09:15:34;15.68;;;9.93;;
77432;SDS011;66752;48.576;8.876;2023-03-16T09:18:02;15.15;;;9.25;;
77432;SDS011;66752;48.576;8.876;2023-03-16T09:20:29;14.55;;;8.18;;
77432;SDS011;66752;48.576;8.876;2023-03-16T09:22:55;14.15;;;8.13;;
77432;SDS011;66752;48.576;8.876;2023-03-16T09:25:22;14.10;;;8.52;;
77432;SDS011;66752;48.576;8.876;2023-03-16T09:27:49;9.00;;;5.88;;
77432;SDS011;66752;48.576;8.876;2023-03-16T09:30:15;11.80;;;6.97;;
77432;SDS011;66752;48.576;8.876;2023-03-16T09:32:42;13.35;;;7.65;;
77432;SDS011;66752;48.576;8.876;2023-03-16T09:35:08;10.50;;;6.63;;
77432;SDS011;66752;48.576;8.876;2023-03-16T09:37:35;10.70;;;6.30;;
77432;SDS011;66752;48.576;8.876;2023-03-16T09:40:01;10.18;;;7.07;;
77432;SDS011;66752;48.576;8.876;2023-03-16T09:45:02;14.07;;;6.78;;
77432;SDS011;66752;48.576;8.876;2023-03-16T09:47:31;11.82;;;4.35;;
77432;SDS011;66752;48.576;8.876;2023-03-16T09:50:01;9.65;;;5.43;;
77432;SDS011;66752;48.576;8.876;2023-03-16T09:52:31;9.48;;;5.15;;
77432;SDS011;66752;48.576;8.876;2023-03-16T09:55:06;10.68;;;4.00;;
77432;SDS011;66752;48.576;8.876;2023-03-16T09:57:36;7.47;;;3.92;;
77432;SDS011;66752;48.576;8.876;2023-03-16T10:00:15;8.40;;;4.45;;
77432;SDS011;66752;48.576;8.876;2023-03-16T10:02:55;9.80;;;4.25;;
77432;SDS011;66752;48.576;8.876;2023-03-16T10:05:23;8.57;;;3.75;;
77432;SDS011;66752;48.576;8.876;2023-03-16T10:13:02;7.82;;;4.53;;
77432;SDS011;66752;48.576;8.876;2023-03-16T10:15:30;17.98;;;7.10;;
77432;SDS011;66752;48.576;8.876;2023-03-16T10:18:17;7.45;;;4.57;;
77432;SDS011;66752;48.576;8.876;2023-03-16T10:20:45;7.60;;;4.43;;
77432;SDS011;66752;48.576;8.876;2023-03-16T10:23:16;7.38;;;3.72;;
77432;SDS011;66752;48.576;8.876;2023-03-16T10:25:43;8.73;;;4.40;;
77432;SDS011;66752;48.576;8.876;2023-03-16T10:28:21;8.15;;;4.30;;
77432;SDS011;66752;48.576;8.876;2023-03-16T10:30:48;7.30;;;4.28;;
77432;SDS011;66752;48.576;8.876;2023-03-16T10:35:45;7.78;;;4.30;;
77432;SDS011;66752;48.576;8.876;2023-03-16T10:40:54;8.05;;;4.55;;
77432;SDS011;66752;48.576;8.876;2023-03-16T10:43:21;7.45;;;4.10;;
77432;SDS011;66752;48.576;8.876;2023-03-16T10:45:49;6.90;;;3.75;;
77432;SDS011;66752;48.576;8.876;2023-03-16T10:48:18;7.72;;;4.70;;
77432;SDS011;66752;48.576;8.876;2023-03-16T10:50:49;8.48;;;4.03;;
77432;SDS011;66752;48.576;8.876;2023-03-16T10:53:26;6.13;;;3.20;;
77432;SDS011;66752;48.576;8.876;2023-03-16T10:56:01;7.03;;;4.15;;
77432;SDS011;66752;48.576;8.876;2023-03-16T11:00:59;6.10;;;3.55;;
77432;SDS011;66752;48.576;8.876;2023-03-16T11:03:28;6.25;;;2.80;;
77432;SDS011;66752;48.576;8.876;2023-03-16T11:06:00;8.32;;;2.83;;
77432;SDS011;66752;48.576;8.876;2023-03-16T11:08:27;4.30;;;2.30;;
77432;SDS011;66752;48.576;8.876;2023-03-16T11:10:57;5.72;;;2.90;;
77432;SDS011;66752;48.576;8.876;2023-03-16T11:13:30;6.55;;;3.00;;
77432;SDS011;66752;48.576;8.876;2023-03-16T11:15:59;5.80;;;2.97;;
77432;SDS011;66752;48.576;8.876;2023-03-16T11:20:57;6.93;;;3.58;;
77432;SDS011;66752;48.576;8.876;2023-03-16T11:23:34;5.97;;;2.55;;
77432;SDS011;66752;48.576;8.876;2023-03-16T11:26:03;7.07;;;3.03;;
77432;SDS011;66752;48.576;8.876;2023-03-16T11:28:36;5.18;;;2.92;;
77432;SDS011;66752;48.576;8.876;2023-03-16T11:33:28;6.97;;;2.60;;
77432;SDS011;66752;48.576;8.876;2023-03-16T11:41:19;4.90;;;2.38;;
77432;SDS011;66752;48.576;8.876;2023-03-16T11:46:17;6.47;;;2.55;;
77432;SDS011;66752;48.576;8.876;2023-03-16T11:48:50;6.50;;;2.50;;
77432;SDS011;66752;48.576;8.876;2023-03-16T11:56:58;4.75;;;2.00;;
77432;SDS011;66752;48.576;8.876;2023-03-16T12:07:07;3.80;;;1.80;;
77432;SDS011;66752;48.576;8.876;2023-03-16T12:17:21;5.95;;;2.42;;
77432;SDS011;66752;48.576;8.876;2023-03-16T12:19:49;4.28;;;1.90;;
77432;SDS011;66752;48.576;8.876;2023-03-16T12:22:22;4.20;;;2.08;;
77432;SDS011;66752;48.576;8.876;2023-03-16T12:24:52;4.50;;;2.00;;
77432;SDS011;66752;48.576;8.876;2023-03-16T12:27:23;4.03;;;2.00;;
77432;SDS011;66752;48.576;8.876;2023-03-16T12:30:00;6.28;;;2.35;;
77432;SDS011;66752;48.576;8.876;2023-03-16T12:35:20;4.00;;;1.80;;
77432;SDS011;66752;48.576;8.876;2023-03-16T12:37:52;4.78;;;1.90;;
77432;SDS011;66752;48.576;8.876;2023-03-16T12:40:26;4.32;;;2.28;;
77432;SDS011;66752;48.576;8.876;2023-03-16T12:45:27;5.82;;;2.20;;
77432;SDS011;66752;48.576;8.876;2023-03-16T12:50:25;4.00;;;1.88;;
77432;SDS011;66752;48.576;8.876;2023-03-16T12:52:51;5.13;;;1.85;;
77432;SDS011;66752;48.576;8.876;2023-03-16T12:58:05;4.50;;;1.85;;
77432;SDS011;66752;48.576;8.876;2023-03-16T13:00:32;3.92;;;1.52;;
77432;SDS011;66752;48.576;8.876;2023-03-16T13:02:59;5.05;;;1.65;;
77432;SDS011;66752;48.576;8.876;2023-03-16T13:05:30;4.00;;;1.50;;
77432;SDS011;66752;48.576;8.876;2023-03-16T13:08:09;5.95;;;1.90;;
77432;SDS011;66752;48.576;8.876;2023-03-16T13:10:37;4.55;;;1.92;;
77432;SDS011;66752;48.576;8.876;2023-03-16T13:15:29;3.90;;;1.48;;
77432;SDS011;66752;48.576;8.876;2023-03-16T13:18:03;4.22;;;1.60;;
77432;SDS011;66752;48.576;8.876;2023-03-16T13:20:31;4.63;;;1.80;;
77432;SDS011;66752;48.576;8.876;2023-03-16T13:23:08;3.85;;;1.60;;
77432;SDS011;66752;48.576;8.876;2023-03-16T13:25:59;3.83;;;1.55;;
77432;SDS011;66752;48.576;8.876;2023-03-16T13:28:30;4.85;;;1.60;;
77432;SDS011;66752;48.576;8.876;2023-03-16T13:30:56;4.93;;;1.73;;
77432;SDS011;66752;48.576;8.876;2023-03-16T13:33:26;4.55;;;1.42;;
77432;SDS011;66752;48.576;8.876;2023-03-16T13:35:54;3.70;;;1.38;;
77432;SDS011;66752;48.576;8.876;2023-03-16T13:38:21;5.97;;;1.60;;
77432;SDS011;66752;48.576;8.876;2023-03-16T13:40:52;5.25;;;1.40;;
77432;SDS011;66752;48.576;8.876;2023-03-16T13:43:23;6.55;;;1.20;;
77432;SDS011;66752;48.576;8.876;2023-03-16T13:45:49;4.72;;;1.70;;
77432;SDS011;66752;48.576;8.876;2023-03-16T13:48:16;4.50;;;1.50;;
77432;SDS011;66752;48.576;8.876;2023-03-16T13:50:42;3.90;;;1.30;;
77432;SDS011;66752;48.576;8.876;2023-03-16T13:53:10;4.15;;;1.63;;
77432;SDS011;66752;48.576;8.876;2023-03-16T13:55:38;3.30;;;1.30;;
77432;SDS011;66752;48.576;8.876;2023-03-16T13:58:12;4.75;;;1.50;;
77432;SDS011;66752;48.576;8.876;2023-03-16T14:00:44;5.15;;;1.40;;
77432;SDS011;66752;48.576;8.876;2023-03-16T14:03:17;3.05;;;1.17;;
77432;SDS011;66752;48.576;8.876;2023-03-16T14:05:46;3.03;;;1.17;;
77432;SDS011;66752;48.576;8.876;2023-03-16T14:08:16;2.85;;;1.00;;
77432;SDS011;66752;48.576;8.876;2023-03-16T14:10:43;3.10;;;1.10;;
77432;SDS011;66752;48.576;8.876;2023-03-16T14:15:59;4.72;;;1.42;;
77432;SDS011;66752;48.576;8.876;2023-03-16T14:18:29;2.45;;;1.17;;
77432;SDS011;66752;48.576;8.876;2023-03-16T14:20:57;3.33;;;0.98;;
77432;SDS011;66752;48.576;8.876;2023-03-16T14:23:24;3.50;;;1.40;;
77432;SDS011;66752;48.576;8.876;2023-03-16T14:25:52;3.40;;;1.10;;
77432;SDS011;66752;48.576;8.876;2023-03-16T14:28:20;4.22;;;1.23;;
77432;SDS011;66752;48.576;8.876;2023-03-16T14:30:53;4.82;;;1.40;;
77432;SDS011;66752;48.576;8.876;2023-03-16T14:35:53;5.20;;;1.35;;
77432;SDS011;66752;48.576;8.876;2023-03-16T14:38:35;3.85;;;1.20;;
77432;SDS011;66752;48.576;8.876;2023-03-16T14:41:09;3.45;;;1.10;;
77432;SDS011;66752;48.576;8.876;2023-03-16T14:43:39;3.78;;;1.20;;
77432;SDS011;66752;48.576;8.876;2023-03-16T14:46:10;3.70;;;1.10;;
77432;SDS011;66752;48.576;8.876;2023-03-16T14:48:38;3.35;;;1.20;;
77432;SDS011;66752;48.576;8.876;2023-03-16T14:51:05;3.85;;;1.35;;
77432;SDS011;66752;48.576;8.876;2023-03-16T14:53:35;3.63;;;1.20;;
77432;SDS011;66752;48.576;8.876;2023-03-16T14:56:01;3.55;;;1.15;;
77432;SDS011;66752;48.576;8.876;2023-03-16T14:58:27;3.35;;;1.10;;
77432;SDS011;66752;48.576;8.876;2023-03-16T15:00:53;3.40;;;1.00;;
77432;SDS011;66752;48.576;8.876;2023-03-16T15:03:21;4.55;;;1.30;;
77432;SDS011;66752;48.576;8.876;2023-03-16T15:05:49;4.25;;;1.00;;
77432;SDS011;66752;48.576;8.876;2023-03-16T15:08:22;2.78;;;0.98;;
77432;SDS011;66752;48.576;8.876;2023-03-16T15:10:50;5.25;;;1.52;;
77432;SDS011;66752;48.576;8.876;2023-03-16T15:13:17;4.43;;;1.50;;
77432;SDS011;66752;48.576;8.876;2023-03-16T15:16:08;4.13;;;1.35;;
77432;SDS011;66752;48.576;8.876;2023-03-16T15:18:35;7.30;;;2.10;;
77432;SDS011;66752;48.576;8.876;2023-03-16T15:21:03;4.68;;;1.42;;
77432;SDS011;66752;48.576;8.876;2023-03-16T15:23:31;4.10;;;1.40;;
77432;SDS011;66752;48.576;8.876;2023-03-16T15:25:57;3.35;;;1.17;;
77432;SDS011;66752;48.576;8.876;2023-03-16T15:28:26;4.95;;;1.55;;
77432;SDS011;66752;48.576;8.876;2023-03-16T15:30:54;4.38;;;1.30;;
77432;SDS011;66752;48.576;8.876;2023-03-16T15:33:21;4.35;;;1.30;;
77432;SDS011;66752;48.576;8.876;2023-03-16T15:35:48;4.55;;;1.20;;
77432;SDS011;66752;48.576;8.876;2023-03-16T15:38:21;2.67;;;1.10;;
77432;SDS011;66752;48.576;8.876;2023-03-16T15:43:16;4.00;;;1.23;;
77432;SDS011;66752;48.576;8.876;2023-03-16T15:45:42;3.83;;;1.40;;
77432;SDS011;66752;48.576;8.876;2023-03-16T15:48:09;5.00;;;1.42;;
77432;SDS011;66752;48.576;8.876;2023-03-16T15:50:36;3.25;;;1.20;;
77432;SDS011;66752;48.576;8.876;2023-03-16T15:53:07;3.28;;;0.90;;
77432;SDS011;66752;48.576;8.876;2023-03-16T15:55:35;4.55;;;1.52;;
77432;SDS011;66752;48.576;8.876;2023-03-16T15:58:03;5.80;;;1.50;;
77432;SDS011;66752;48.576;8.876;2023-03-16T16:00:30;3.90;;;1.52;;
77432;SDS011;66752;48.576;8.876;2023-03-16T16:02:57;4.55;;;1.50;;